Skip Navigation Links Skip Navigation Links

Current Weather

Stewart Int'L, Newburgh, N.Y.

For information only: do not use for flight planning or navigation.
Latest weather
Observation time Wednesday, August 12, 2020 1:45 PM EDT
Local time Wednesday, August 12, 2020 2:43 PM EDT
Flight conditions Visual Meteorological Conditions
Winds
Wind direction variable
Wind speed 6 mph
Visibility 20 mi.
Sky condition
Ceiling unlimited
Cloud layer scattered clouds 4,000 ft.
Temperature 88°F
Dewpoint 70°F
Altimeter 30.04 in.Hg
Derived measurements
Relative humidity 55%
Heat index 93°F
Density altitude 2522 ft.
METAR KSWF 121745Z VRB05KT 20SM SCT040 31/21 A3004

Settings

Location code

InnerDrive.Weather 4.0.6770.0 Release CLR 4.0.30319.42000
Copyright ©2018 Inner Drive Technology. All rights reserved. Portions Copyright ©1986-2018 David Braverman.

Find weather

Site navigation


Skip Navigation Links

Place info

Page info

PayPal - The safer, easier way to pay online!

Return home.

Copyright ©2020 Inner Drive Technology. Purveyors of fine, hand-crafted computer software. Page printed 2020-08-12T18:43:48 UTC.